createdAt,value
2024-05-09T00:00:41.260Z,56.55
2024-05-09T00:01:40.253Z,58.47
2024-05-09T00:02:40.936Z,56.58
2024-05-09T00:03:40.259Z,60.05
2024-05-09T00:04:40.270Z,59.58
2024-05-09T00:05:40.333Z,59.47
2024-05-09T00:06:40.197Z,57.20
2024-05-09T00:07:40.195Z,57.21
2024-05-09T00:08:40.208Z,55.33
2024-05-09T00:09:40.222Z,55.89
2024-05-09T00:10:41.071Z,58.25
2024-05-09T00:11:40.324Z,56.75
2024-05-09T00:12:40.212Z,57.46
2024-05-09T00:13:40.208Z,54.37
2024-05-09T00:14:40.215Z,56.71
2024-05-09T00:15:40.186Z,57.10
2024-05-09T00:16:40.211Z,55.80
2024-05-09T00:17:40.469Z,55.52
2024-05-09T00:18:40.386Z,57.40
2024-05-09T00:19:40.263Z,57.59
2024-05-09T00:20:41.326Z,54.84
2024-05-09T00:21:40.247Z,58.34
2024-05-09T00:22:40.264Z,56.66
2024-05-09T00:23:40.400Z,56.32
2024-05-09T00:24:40.313Z,56.04
2024-05-09T00:25:40.346Z,56.01
2024-05-09T00:26:40.414Z,54.86
2024-05-09T00:27:40.374Z,55.49
2024-05-09T00:28:40.406Z,54.45
2024-05-09T00:29:40.456Z,52.09
2024-05-09T00:30:40.484Z,52.86
2024-05-09T00:31:40.444Z,55.58
2024-05-09T00:32:40.610Z,54.72
2024-05-09T00:33:40.642Z,54.46
2024-05-09T00:34:40.487Z,54.27
2024-05-09T00:35:40.580Z,54.14
2024-05-09T00:36:40.594Z,53.69
2024-05-09T00:37:40.960Z,50.22
2024-05-09T00:38:40.610Z,51.85
2024-05-09T00:39:40.617Z,53.40
2024-05-09T00:40:42.707Z,53.48
2024-05-09T00:41:40.743Z,51.90
2024-05-09T00:42:40.805Z,52.48
2024-05-09T00:43:40.659Z,53.13
2024-05-09T00:44:40.627Z,52.90
2024-05-09T00:45:40.643Z,52.86
2024-05-09T00:46:40.635Z,51.08
2024-05-09T00:47:40.800Z,52.08
2024-05-09T00:48:40.835Z,52.18
2024-05-09T00:49:40.734Z,54.11
2024-05-09T00:50:41.403Z,51.41
2024-05-09T00:51:40.642Z,54.62
2024-05-09T00:52:40.679Z,53.92
2024-05-09T00:53:40.697Z,52.54
2024-05-09T00:54:40.647Z,52.65
2024-05-09T00:55:40.670Z,53.15
2024-05-09T00:56:40.715Z,51.64
2024-05-09T00:57:40.657Z,54.57
2024-05-09T00:58:40.663Z,53.23
2024-05-09T00:59:40.725Z,53.97
2024-05-09T01:00:41.643Z,51.13
2024-05-09T01:01:40.774Z,52.25
2024-05-09T01:02:40.869Z,53.16
2024-05-09T01:03:40.822Z,51.46
2024-05-09T01:04:40.718Z,51.50
2024-05-09T01:05:41.065Z,51.98
2024-05-09T01:06:40.660Z,51.06
2024-05-09T01:07:40.680Z,53.48
2024-05-09T01:08:40.775Z,52.86
2024-05-09T01:09:40.713Z,52.69
2024-05-09T01:10:43.708Z,51.83
2024-05-09T01:11:40.834Z,52.03
2024-05-09T01:12:40.732Z,52.18
2024-05-09T01:13:40.686Z,52.87
2024-05-09T01:14:40.683Z,52.84
2024-05-09T01:15:40.725Z,53.78
2024-05-09T01:16:40.704Z,53.54
2024-05-09T01:17:40.951Z,51.20
2024-05-09T01:18:40.944Z,51.75
2024-05-09T01:19:40.811Z,54.11
2024-05-09T01:20:43.458Z,51.09
2024-05-09T01:21:40.733Z,51.18
2024-05-09T01:22:40.723Z,51.27
2024-05-09T01:23:40.766Z,51.58
2024-05-09T01:24:40.724Z,52.25
2024-05-09T01:25:40.743Z,52.81
2024-05-09T01:26:40.836Z,52.34
2024-05-09T01:27:40.977Z,50.00
2024-05-09T01:28:40.740Z,50.85
2024-05-09T01:29:40.731Z,53.00
2024-05-09T01:30:40.754Z,52.94
2024-05-09T01:31:40.797Z,52.88
2024-05-09T01:32:40.851Z,52.78
2024-05-09T01:33:40.926Z,52.50
2024-05-09T01:34:40.735Z,52.09
2024-05-09T01:35:41.950Z,52.77
2024-05-09T01:36:40.765Z,52.68
2024-05-09T01:37:40.776Z,53.94
2024-05-09T01:38:40.778Z,52.71
2024-05-09T01:39:40.762Z,51.96
2024-05-09T01:40:40.784Z,51.84
2024-05-09T01:41:40.756Z,52.23
2024-05-09T01:42:40.755Z,52.62
2024-05-09T01:43:40.742Z,53.67
2024-05-09T01:44:40.751Z,51.14
2024-05-09T01:45:41.203Z,51.87
2024-05-09T01:46:40.772Z,53.22
2024-05-09T01:47:41.310Z,53.54
2024-05-09T01:48:40.888Z,51.08
2024-05-09T01:49:40.865Z,52.37
2024-05-09T01:50:42.735Z,52.00
2024-05-09T01:51:40.930Z,54.80
2024-05-09T01:52:40.973Z,52.13
2024-05-09T01:53:41.046Z,55.18
2024-05-09T01:54:40.976Z,51.81
2024-05-09T01:55:41.020Z,52.79
2024-05-09T01:56:41.054Z,54.29
2024-05-09T01:57:41.041Z,53.13
2024-05-09T01:58:41.055Z,54.25
2024-05-09T01:59:41.138Z,53.43
2024-05-09T02:00:42.863Z,52.53
2024-05-09T02:01:56.026Z,54.04
2024-05-09T02:02:42.435Z,54.17
2024-05-09T02:03:41.327Z,54.32
2024-05-09T02:04:41.409Z,54.43
2024-05-09T02:05:41.346Z,54.06
2024-05-09T02:06:41.210Z,53.01
2024-05-09T02:07:41.240Z,52.62
2024-05-09T02:08:41.302Z,52.71
2024-05-09T02:09:41.241Z,50.20
2024-05-09T02:10:41.296Z,52.64
2024-05-09T02:11:41.331Z,52.00
2024-05-09T02:12:41.258Z,51.13
2024-05-09T02:13:41.249Z,51.61
2024-05-09T02:14:41.275Z,51.93
2024-05-09T02:15:41.268Z,52.62
2024-05-09T02:16:41.284Z,51.43
2024-05-09T02:17:41.551Z,52.06
2024-05-09T02:18:41.331Z,51.55
2024-05-09T02:19:41.259Z,52.78
2024-05-09T02:20:41.926Z,53.17
2024-05-09T02:21:41.257Z,50.96
2024-05-09T02:22:41.263Z,51.46
2024-05-09T02:23:41.314Z,51.05
2024-05-09T02:24:41.265Z,53.51
2024-05-09T02:25:41.271Z,51.95
2024-05-09T02:26:41.257Z,51.85
2024-05-09T02:27:41.302Z,53.19
2024-05-09T02:28:41.255Z,51.55
2024-05-09T02:29:41.302Z,52.31
2024-05-09T02:30:42.396Z,54.22
2024-05-09T02:31:41.303Z,52.35
2024-05-09T02:32:41.542Z,53.59
2024-05-09T02:33:41.421Z,52.25
2024-05-09T02:34:41.255Z,52.46
2024-05-09T02:35:41.448Z,52.68
2024-05-09T02:36:41.281Z,50.69
2024-05-09T02:37:41.280Z,53.88
2024-05-09T02:38:41.326Z,50.28
2024-05-09T02:39:41.297Z,50.00
2024-05-09T02:40:41.337Z,53.68
2024-05-09T02:41:41.282Z,53.01
2024-05-09T02:42:41.309Z,53.83
2024-05-09T02:43:41.342Z,52.35
2024-05-09T02:44:41.335Z,52.68
2024-05-09T02:45:41.427Z,53.00
2024-05-09T02:46:41.336Z,53.26
2024-05-09T02:47:41.524Z,53.65
2024-05-09T02:48:41.465Z,53.52
2024-05-09T02:49:41.415Z,52.16
2024-05-09T02:50:41.824Z,53.83
2024-05-09T02:51:41.411Z,53.16
2024-05-09T02:52:41.441Z,51.77
2024-05-09T02:53:41.552Z,53.51
2024-05-09T02:54:41.428Z,51.35
2024-05-09T02:55:41.722Z,51.79
2024-05-09T02:56:41.527Z,51.84
2024-05-09T02:57:41.487Z,54.27
2024-05-09T02:58:41.558Z,51.95
2024-05-09T02:59:41.563Z,53.60
2024-05-09T03:00:42.864Z,51.30
2024-05-09T03:01:41.625Z,52.79
2024-05-09T03:02:41.789Z,51.75
2024-05-09T03:03:41.804Z,52.24
2024-05-09T03:04:41.656Z,52.81
2024-05-09T03:05:42.009Z,51.60
2024-05-09T03:06:41.660Z,51.97
2024-05-09T03:07:41.710Z,54.26
2024-05-09T03:08:41.760Z,52.77
2024-05-09T03:09:41.729Z,51.01
2024-05-09T03:10:41.766Z,53.46
2024-05-09T03:11:41.915Z,53.39
2024-05-09T03:12:41.868Z,53.01
2024-05-09T03:13:41.843Z,54.37
2024-05-09T03:14:41.859Z,52.59
2024-05-09T03:15:41.909Z,52.77
2024-05-09T03:16:41.894Z,52.80
2024-05-09T03:17:42.157Z,52.94
2024-05-09T03:18:41.999Z,52.49
2024-05-09T03:19:41.952Z,52.18
2024-05-09T03:20:42.055Z,53.09
2024-05-09T03:21:42.137Z,55.03
2024-05-09T03:22:42.031Z,52.03
2024-05-09T03:23:42.261Z,51.71
2024-05-09T03:24:42.169Z,52.96
2024-05-09T03:25:42.104Z,53.47
2024-05-09T03:26:42.102Z,53.38
2024-05-09T03:27:42.135Z,53.72
2024-05-09T03:28:42.139Z,52.41
2024-05-09T03:29:42.171Z,52.57
2024-05-09T03:30:43.302Z,53.68
2024-05-09T03:31:42.223Z,50.82
2024-05-09T03:32:42.322Z,50.40
2024-05-09T03:33:42.604Z,50.86
2024-05-09T03:34:42.263Z,53.56
2024-05-09T03:35:42.347Z,51.30
2024-05-09T03:36:42.311Z,55.31
2024-05-09T03:37:42.295Z,52.13
2024-05-09T03:38:42.424Z,52.67
2024-05-09T03:39:42.350Z,53.08
2024-05-09T03:40:42.378Z,52.08
2024-05-09T03:41:42.471Z,54.58
2024-05-09T03:42:42.449Z,51.18
2024-05-09T03:43:42.463Z,51.05
2024-05-09T03:44:42.481Z,52.47
2024-05-09T03:45:42.488Z,52.05
2024-05-09T03:46:42.496Z,51.58
2024-05-09T03:47:42.778Z,53.82
2024-05-09T03:48:42.617Z,53.06
2024-05-09T03:49:42.609Z,51.71
2024-05-09T03:50:42.703Z,52.40
2024-05-09T03:51:42.609Z,52.65
2024-05-09T03:52:42.645Z,53.83
2024-05-09T03:53:42.721Z,53.96
2024-05-09T03:54:42.679Z,52.71
2024-05-09T03:55:42.684Z,53.75
2024-05-09T03:56:42.745Z,51.52
2024-05-09T03:57:42.724Z,52.48
2024-05-09T03:58:42.759Z,52.74
2024-05-09T03:59:42.771Z,54.31
2024-05-09T04:00:42.888Z,54.45
2024-05-09T04:01:42.988Z,52.24
2024-05-09T04:02:42.928Z,52.40
2024-05-09T04:03:43.150Z,51.72
2024-05-09T04:04:42.956Z,54.44
2024-05-09T04:05:43.755Z,52.70
2024-05-09T04:06:42.947Z,53.18
2024-05-09T04:07:42.962Z,55.68
2024-05-09T04:08:43.084Z,52.01
2024-05-09T04:09:43.016Z,55.23
2024-05-09T04:10:43.051Z,55.34
2024-05-09T04:11:43.119Z,53.33
2024-05-09T04:12:43.520Z,52.74
2024-05-09T04:13:43.121Z,55.38
2024-05-09T04:14:43.165Z,52.83
2024-05-09T04:15:43.154Z,52.98
2024-05-09T04:16:43.203Z,54.11
2024-05-09T04:17:43.364Z,54.24
2024-05-09T04:18:43.388Z,52.62
2024-05-09T04:19:43.266Z,52.29
2024-05-09T04:20:43.309Z,51.82
2024-05-09T04:21:43.340Z,53.64
2024-05-09T04:22:43.361Z,53.98
2024-05-09T04:23:43.502Z,51.83
2024-05-09T04:24:43.405Z,54.13
2024-05-09T04:25:43.497Z,54.16
2024-05-09T04:26:43.529Z,53.43
2024-05-09T04:27:43.455Z,53.71
2024-05-09T04:28:43.546Z,53.95
2024-05-09T04:29:43.561Z,53.80
2024-05-09T04:30:43.753Z,50.77
2024-05-09T04:31:43.630Z,54.63
2024-05-09T04:32:43.801Z,53.60
2024-05-09T04:33:43.769Z,52.81
2024-05-09T04:34:43.640Z,54.35
2024-05-09T04:35:44.176Z,54.59
2024-05-09T04:36:44.719Z,51.95
2024-05-09T04:37:43.825Z,53.60
2024-05-09T04:38:43.752Z,51.80
2024-05-09T04:39:43.759Z,53.55
2024-05-09T04:40:43.820Z,52.96
2024-05-09T04:41:43.824Z,54.70
2024-05-09T04:42:43.862Z,52.34
2024-05-09T04:43:43.918Z,53.05
2024-05-09T04:44:43.923Z,54.71
2024-05-09T04:45:43.951Z,53.52
2024-05-09T04:46:44.067Z,53.58
2024-05-09T04:47:44.145Z,53.42
2024-05-09T04:48:44.180Z,53.54
2024-05-09T04:49:51.558Z,50.00
2024-05-09T04:50:51.586Z,50.00
2024-05-09T04:51:51.487Z,50.00
2024-05-09T04:52:51.609Z,50.00
2024-05-09T04:53:51.497Z,50.00
2024-05-09T04:54:51.476Z,50.79
2024-05-09T04:55:51.605Z,50.00
2024-05-09T04:56:51.488Z,51.41
2024-05-09T04:57:51.495Z,51.11
2024-05-09T04:58:51.715Z,50.95
2024-05-09T04:59:51.498Z,52.27
2024-05-09T05:00:51.578Z,52.98
2024-05-09T05:01:51.684Z,51.15
2024-05-09T05:02:51.722Z,52.04
2024-05-09T05:03:51.838Z,54.11
2024-05-09T05:04:51.717Z,52.35
2024-05-09T05:05:51.761Z,52.75
2024-05-09T05:06:51.515Z,52.15
2024-05-09T05:07:51.550Z,54.20
2024-05-09T05:08:51.539Z,50.57
2024-05-09T05:09:51.515Z,52.44
2024-05-09T05:10:51.632Z,51.57
2024-05-09T05:11:51.608Z,52.94
2024-05-09T05:12:51.532Z,52.09
2024-05-09T05:13:51.548Z,51.68
2024-05-09T05:14:51.506Z,51.18
2024-05-09T05:15:51.567Z,50.71
2024-05-09T05:16:51.561Z,51.59
2024-05-09T05:17:51.682Z,54.66
2024-05-09T05:18:51.580Z,51.67
2024-05-09T05:19:51.607Z,52.42
2024-05-09T05:20:51.771Z,53.79
2024-05-09T05:21:51.525Z,54.88
2024-05-09T05:22:51.596Z,53.86
2024-05-09T05:23:51.524Z,55.63
2024-05-09T05:24:51.537Z,53.76
2024-05-09T05:25:51.541Z,53.81
2024-05-09T05:26:51.528Z,52.74
2024-05-09T05:27:51.526Z,51.76
2024-05-09T05:28:51.545Z,53.98
2024-05-09T05:29:51.542Z,54.46
2024-05-09T05:30:51.569Z,54.04
2024-05-09T05:31:51.672Z,52.39
2024-05-09T05:32:51.817Z,51.70
2024-05-09T05:33:51.637Z,52.41
2024-05-09T05:34:51.566Z,52.96
2024-05-09T05:35:51.545Z,51.35
2024-05-09T05:36:51.543Z,53.40
2024-05-09T05:37:51.592Z,53.50
2024-05-09T05:38:51.594Z,53.17
2024-05-09T05:39:51.549Z,51.77
2024-05-09T05:40:51.581Z,52.98
2024-05-09T05:41:51.612Z,54.75
2024-05-09T05:42:51.620Z,53.14
2024-05-09T05:43:51.750Z,54.26
2024-05-09T05:44:51.697Z,52.83
2024-05-09T05:45:51.703Z,53.89
2024-05-09T05:46:51.774Z,53.20
2024-05-09T05:47:51.963Z,53.07
2024-05-09T05:48:51.883Z,54.30
2024-05-09T05:49:51.872Z,53.91
2024-05-09T05:50:51.920Z,52.80
2024-05-09T05:51:51.886Z,53.20
2024-05-09T05:52:52.017Z,53.01
2024-05-09T05:53:51.950Z,53.06
2024-05-09T05:54:52.027Z,52.64
2024-05-09T05:55:52.076Z,56.18
2024-05-09T05:56:52.066Z,52.99
2024-05-09T05:57:52.058Z,53.40
2024-05-09T05:58:52.094Z,53.91
2024-05-09T05:59:52.149Z,54.11
2024-05-09T06:00:52.127Z,53.77
2024-05-09T06:01:52.193Z,53.95
2024-05-09T06:02:52.347Z,53.83
2024-05-09T06:03:52.309Z,55.97
2024-05-09T06:04:52.395Z,54.40
2024-05-09T06:05:52.365Z,53.95
2024-05-09T06:06:52.278Z,55.16
2024-05-09T06:07:52.323Z,54.94
2024-05-09T06:08:52.426Z,54.48
2024-05-09T06:09:52.346Z,53.89
2024-05-09T06:10:52.532Z,53.62
2024-05-09T06:11:52.481Z,54.25
2024-05-09T06:12:52.450Z,56.90
2024-05-09T06:13:52.501Z,52.88
2024-05-09T06:14:52.491Z,56.04
2024-05-09T06:15:52.532Z,54.67
2024-05-09T06:16:54.114Z,56.16
2024-05-09T06:17:52.629Z,56.16
2024-05-09T06:18:52.728Z,56.44
2024-05-09T06:19:52.703Z,56.05
2024-05-09T06:20:52.734Z,58.47
2024-05-09T06:21:52.556Z,56.40
2024-05-09T06:22:52.616Z,56.06
2024-05-09T06:23:52.548Z,55.20
2024-05-09T06:24:52.543Z,55.98
2024-05-09T06:25:52.626Z,54.32
2024-05-09T06:26:52.539Z,53.41
2024-05-09T06:27:52.549Z,55.32
2024-05-09T06:28:52.607Z,53.03
2024-05-09T06:29:52.579Z,54.13
2024-05-09T06:30:52.551Z,52.82
2024-05-09T06:31:52.603Z,53.93
2024-05-09T06:32:52.723Z,58.28
2024-05-09T06:33:52.715Z,55.23
2024-05-09T06:34:52.580Z,54.59
2024-05-09T06:35:52.581Z,54.73
2024-05-09T06:36:52.563Z,52.87
2024-05-09T06:37:52.639Z,56.17
2024-05-09T06:38:52.563Z,53.61
2024-05-09T06:39:52.548Z,53.36
2024-05-09T06:40:52.571Z,54.60
2024-05-09T06:41:52.587Z,55.27
2024-05-09T06:42:52.593Z,54.15
2024-05-09T06:43:52.655Z,56.06
2024-05-09T06:44:52.601Z,53.99
2024-05-09T06:45:52.765Z,55.31
2024-05-09T06:46:53.653Z,55.70
2024-05-09T06:47:52.910Z,56.43
2024-05-09T06:50:52.631Z,55.00
2024-05-09T06:51:52.585Z,54.66
2024-05-09T06:52:52.604Z,51.75
2024-05-09T06:53:52.581Z,52.31
2024-05-09T06:54:52.574Z,52.53
2024-05-09T06:55:52.918Z,54.65
2024-05-09T06:56:52.570Z,53.66
2024-05-09T06:57:52.578Z,54.32
2024-05-09T06:58:52.641Z,53.17
2024-05-09T06:59:52.590Z,54.60
2024-05-09T07:00:52.674Z,55.13
2024-05-09T07:01:52.642Z,52.38
2024-05-09T07:02:52.780Z,52.96
2024-05-09T07:03:52.722Z,51.39
2024-05-09T07:04:52.928Z,51.37
2024-05-09T07:05:52.641Z,55.04
2024-05-09T07:06:52.595Z,50.89
2024-05-09T07:07:52.715Z,54.32
2024-05-09T07:08:52.772Z,51.85
2024-05-09T07:09:52.707Z,52.79
2024-05-09T07:10:52.757Z,55.20
2024-05-09T07:11:52.757Z,54.38
2024-05-09T07:12:52.699Z,55.59
2024-05-09T07:13:52.733Z,54.30
2024-05-09T07:14:52.850Z,53.26
2024-05-09T07:15:52.816Z,56.26
2024-05-09T07:16:52.883Z,55.54
2024-05-09T07:17:53.336Z,54.85
2024-05-09T07:18:52.954Z,52.48
2024-05-09T07:19:52.881Z,56.31
2024-05-09T07:20:52.929Z,54.59
2024-05-09T07:21:52.850Z,56.41
2024-05-09T07:22:52.919Z,56.27
2024-05-09T07:23:52.978Z,54.91
2024-05-09T07:24:52.937Z,56.64
2024-05-09T07:25:53.026Z,55.14
2024-05-09T07:26:52.956Z,56.95
2024-05-09T07:27:52.956Z,54.40
2024-05-09T07:28:53.021Z,57.46
2024-05-09T07:29:52.994Z,56.13
2024-05-09T07:30:52.998Z,56.54
2024-05-09T07:31:53.066Z,58.90
2024-05-09T07:32:53.247Z,55.78
2024-05-09T07:33:53.204Z,56.10
2024-05-09T07:34:53.102Z,55.56
2024-05-09T07:35:53.307Z,57.85
2024-05-09T07:36:53.104Z,57.41
2024-05-09T07:37:53.191Z,59.37
2024-05-09T07:38:53.226Z,56.34
2024-05-09T07:39:53.164Z,57.45
2024-05-09T07:40:53.203Z,59.10
2024-05-09T07:41:53.197Z,57.20
2024-05-09T07:42:53.216Z,56.34
2024-05-09T07:43:53.286Z,58.12
2024-05-09T07:44:53.253Z,54.65
2024-05-09T07:45:55.373Z,57.98
2024-05-09T07:48:13.660Z,58.03
2024-05-09T07:50:35.121Z,58.17
2024-05-09T07:52:38.133Z,58.34
2024-05-09T07:53:35.510Z,59.05
2024-05-09T07:53:57.115Z,58.33
2024-05-09T07:54:54.399Z,58.35
2024-05-09T07:55:53.547Z,59.61
2024-05-09T07:56:53.522Z,60.95
2024-05-09T07:57:53.346Z,61.74
2024-05-09T07:58:53.368Z,65.06
2024-05-09T07:59:53.305Z,62.35
2024-05-09T08:00:53.458Z,63.03
2024-05-09T08:01:53.426Z,63.10
2024-05-09T08:02:53.327Z,64.08
2024-05-09T08:03:53.554Z,62.70
2024-05-09T08:04:53.452Z,61.10
2024-05-09T08:05:53.449Z,59.29
2024-05-09T08:06:53.338Z,56.98
2024-05-09T08:07:53.300Z,59.37
2024-05-09T08:08:53.325Z,58.27
2024-05-09T08:09:53.343Z,55.00
2024-05-09T08:10:53.381Z,55.82
2024-05-09T08:11:53.393Z,54.10
2024-05-09T08:12:53.327Z,55.70
2024-05-09T08:13:53.330Z,52.81
2024-05-09T08:14:53.307Z,52.46
2024-05-09T08:15:53.390Z,52.47
2024-05-09T08:16:53.324Z,51.43
2024-05-09T08:17:53.409Z,51.38
2024-05-09T08:18:53.436Z,52.55
2024-05-09T08:19:53.394Z,53.86
2024-05-09T08:20:53.406Z,53.14
2024-05-09T08:21:53.373Z,53.33
2024-05-09T08:22:53.336Z,53.58
2024-05-09T08:23:53.325Z,52.79
2024-05-09T08:24:53.369Z,51.40
2024-05-09T08:25:53.337Z,51.10
2024-05-09T08:26:53.302Z,52.32
2024-05-09T08:27:53.364Z,52.72
2024-05-09T08:28:53.343Z,53.24
2024-05-09T08:29:53.345Z,50.95
2024-05-09T08:30:53.430Z,50.65
2024-05-09T08:31:53.345Z,51.62
2024-05-09T08:32:53.435Z,52.20
2024-05-09T08:33:53.481Z,55.00
2024-05-09T08:34:53.426Z,50.80
2024-05-09T08:35:53.312Z,52.80
2024-05-09T08:36:53.403Z,50.71
2024-05-09T08:37:53.489Z,50.67
2024-05-09T08:38:53.347Z,53.44
2024-05-09T08:39:53.354Z,51.52
2024-05-09T08:40:53.420Z,52.52
2024-05-09T08:41:53.418Z,53.06
2024-05-09T08:42:53.477Z,52.19
2024-05-09T08:43:53.332Z,50.51
2024-05-09T08:44:53.318Z,52.08
2024-05-09T08:45:53.352Z,53.46
2024-05-09T08:46:53.333Z,53.20
2024-05-09T08:47:53.449Z,51.69
2024-05-09T08:48:53.523Z,50.00
2024-05-09T08:49:53.433Z,52.16
2024-05-09T08:50:53.519Z,53.24
2024-05-09T08:51:53.417Z,52.59
2024-05-09T08:52:53.345Z,50.91
2024-05-09T08:53:53.368Z,50.75
2024-05-09T08:54:53.461Z,50.00
2024-05-09T08:55:53.350Z,52.91
2024-05-09T08:56:53.342Z,51.31
2024-05-09T08:57:53.427Z,52.08
2024-05-09T08:58:53.344Z,51.53
2024-05-09T08:59:53.369Z,54.07
2024-05-09T09:00:53.517Z,51.48
2024-05-09T09:01:53.535Z,50.89
2024-05-09T09:02:53.400Z,54.95
2024-05-09T09:03:53.517Z,54.09
2024-05-09T09:04:53.461Z,52.41
2024-05-09T09:05:53.670Z,54.19
2024-05-09T09:06:56.344Z,53.45
2024-05-09T09:07:53.374Z,53.53
2024-05-09T09:08:53.384Z,52.06
2024-05-09T09:09:53.493Z,51.93
2024-05-09T09:10:53.393Z,49.44
2024-05-09T09:11:53.388Z,51.20
2024-05-09T09:12:53.406Z,50.86
2024-05-09T09:13:53.381Z,51.91
2024-05-09T09:14:53.366Z,52.27
2024-05-09T09:15:53.377Z,51.49
2024-05-09T09:16:53.391Z,51.92
2024-05-09T09:17:53.845Z,51.55
2024-05-09T09:18:54.445Z,50.17
2024-05-09T09:19:53.434Z,51.73
2024-05-09T09:20:53.395Z,51.15
2024-05-09T09:21:53.456Z,53.74
2024-05-09T09:22:53.422Z,52.19
2024-05-09T09:23:53.389Z,51.62
2024-05-09T09:24:53.418Z,51.62
2024-05-09T09:25:53.396Z,55.16
2024-05-09T09:26:53.424Z,51.85
2024-05-09T09:27:53.452Z,51.67
2024-05-09T09:28:53.457Z,50.82
2024-05-09T09:29:53.399Z,50.72
2024-05-09T09:30:53.465Z,50.07
2024-05-09T09:31:53.434Z,50.00
2024-05-09T09:32:53.464Z,50.00
2024-05-09T09:33:53.754Z,50.00
2024-05-09T09:34:53.464Z,52.52
2024-05-09T09:35:53.398Z,52.21
2024-05-09T09:36:53.629Z,52.43
2024-05-09T09:37:53.424Z,53.78
2024-05-09T09:38:53.514Z,53.58
2024-05-09T09:39:53.458Z,53.57
2024-05-09T09:40:53.507Z,52.41
2024-05-09T09:41:53.439Z,52.67
2024-05-09T09:42:53.481Z,54.87
2024-05-09T09:43:53.434Z,56.09
2024-05-09T09:45:01.965Z,53.88
2024-05-09T09:45:54.425Z,54.15
2024-05-09T09:46:53.469Z,54.55
2024-05-09T09:47:53.635Z,56.18
2024-05-09T09:48:53.491Z,59.03
2024-05-09T09:49:53.504Z,61.32
2024-05-09T09:50:53.434Z,60.02
2024-05-09T09:51:53.544Z,60.77
2024-05-09T09:52:53.509Z,60.03
2024-05-09T09:53:53.500Z,62.57
2024-05-09T09:54:53.557Z,59.77
2024-05-09T09:55:53.424Z,61.49
2024-05-09T09:56:53.449Z,62.84
2024-05-09T09:57:53.539Z,62.10
2024-05-09T09:58:53.454Z,63.32
2024-05-09T09:59:53.466Z,62.47
2024-05-09T10:00:53.547Z,62.40
2024-05-09T10:01:53.617Z,61.88
2024-05-09T10:02:53.483Z,63.04
2024-05-09T10:03:53.555Z,63.65
2024-05-09T10:04:53.593Z,64.19
2024-05-09T10:05:53.520Z,63.62
2024-05-09T10:06:53.502Z,63.84
2024-05-09T10:07:53.588Z,66.15
2024-05-09T10:08:53.473Z,64.49
2024-05-09T10:09:53.500Z,64.42
2024-05-09T10:10:53.585Z,65.01
2024-05-09T10:11:59.717Z,64.68
2024-05-09T10:12:54.496Z,64.74
2024-05-09T10:13:53.491Z,64.84
2024-05-09T10:14:53.487Z,64.44
2024-05-09T10:15:54.002Z,64.75
2024-05-09T10:16:53.487Z,64.41
2024-05-09T10:17:53.548Z,61.70
2024-05-09T10:18:53.959Z,63.18
2024-05-09T10:19:53.564Z,61.93
2024-05-09T10:20:53.469Z,61.47
2024-05-09T10:21:53.491Z,62.86
2024-05-09T10:22:53.492Z,62.92
2024-05-09T10:23:53.494Z,62.55
2024-05-09T10:24:53.546Z,62.45
2024-05-09T10:25:53.496Z,63.92
2024-05-09T10:26:53.493Z,62.89
2024-05-09T10:27:53.515Z,62.59
2024-05-09T10:28:53.484Z,61.25
2024-05-09T10:29:53.486Z,59.91
2024-05-09T10:30:53.531Z,58.22
2024-05-09T10:31:53.535Z,59.59
2024-05-09T10:32:53.629Z,56.05
2024-05-09T10:33:53.860Z,59.05
2024-05-09T10:34:53.538Z,58.94
2024-05-09T10:35:53.480Z,59.97
2024-05-09T10:36:53.591Z,57.53
2024-05-09T10:37:53.489Z,59.33
2024-05-09T10:38:53.506Z,59.50
2024-05-09T10:39:53.567Z,59.37
2024-05-09T10:40:53.570Z,58.95
2024-05-09T10:41:53.525Z,60.55
2024-05-09T10:42:53.572Z,59.20
2024-05-09T10:43:53.524Z,61.35
2024-05-09T10:44:53.509Z,60.89
2024-05-09T10:45:53.556Z,62.50
2024-05-09T10:46:53.574Z,60.36
2024-05-09T10:47:53.688Z,61.67
2024-05-09T10:48:53.647Z,60.55
2024-05-09T10:49:53.653Z,60.46
2024-05-09T10:50:53.538Z,59.16
2024-05-09T10:51:53.637Z,58.73
2024-05-09T10:52:53.524Z,58.71
2024-05-09T10:53:53.558Z,59.41
2024-05-09T10:54:53.594Z,59.49
2024-05-09T10:55:53.539Z,56.85
2024-05-09T10:56:53.528Z,58.31
2024-05-09T10:57:53.752Z,60.73
2024-05-09T10:58:53.540Z,59.93
2024-05-09T10:59:53.538Z,59.10
2024-05-09T11:00:53.653Z,61.20
2024-05-09T11:01:53.725Z,58.76
2024-05-09T11:02:53.565Z,61.11
2024-05-09T11:03:53.746Z,57.80
2024-05-09T11:04:53.613Z,59.83
2024-05-09T11:05:53.563Z,57.87
2024-05-09T11:06:53.620Z,57.50
2024-05-09T11:07:53.532Z,57.81
2024-05-09T11:08:53.572Z,57.28
2024-05-09T11:09:53.559Z,58.32
2024-05-09T11:10:53.687Z,57.86
2024-05-09T11:11:53.579Z,57.71
2024-05-09T11:12:53.563Z,57.56
2024-05-09T11:13:53.721Z,55.66
2024-05-09T11:14:53.562Z,57.45
2024-05-09T11:15:53.600Z,57.86
2024-05-09T11:16:53.600Z,60.24
2024-05-09T11:17:53.594Z,57.21
2024-05-09T11:18:53.659Z,59.48
2024-05-09T11:19:53.567Z,59.23
2024-05-09T11:20:53.574Z,62.66
2024-05-09T11:21:53.623Z,59.82
2024-05-09T11:22:53.575Z,59.54
2024-05-09T11:23:53.602Z,58.76
2024-05-09T11:24:53.633Z,62.58
2024-05-09T11:25:53.624Z,61.64
2024-05-09T11:26:53.587Z,59.74
2024-05-09T11:27:53.614Z,59.69
2024-05-09T11:28:53.596Z,59.92
2024-05-09T11:29:53.599Z,59.33
2024-05-09T11:30:53.678Z,60.39
2024-05-09T11:31:53.713Z,59.67
2024-05-09T11:32:53.754Z,59.81
2024-05-09T11:33:53.783Z,57.52
2024-05-09T11:34:53.641Z,60.34
2024-05-09T11:35:53.652Z,62.53
2024-05-09T11:36:53.760Z,62.71
2024-05-09T11:37:53.648Z,62.70
2024-05-09T11:38:53.694Z,63.10
2024-05-09T11:39:53.739Z,61.99
2024-05-09T11:40:53.765Z,65.25
2024-05-09T11:41:53.698Z,61.54
2024-05-09T11:42:53.823Z,63.54
2024-05-09T11:43:53.713Z,64.46
2024-05-09T11:44:53.706Z,63.03
2024-05-09T11:45:53.846Z,63.99
2024-05-09T11:46:53.722Z,64.23
2024-05-09T11:47:53.964Z,67.61
2024-05-09T11:48:53.902Z,67.20
2024-05-09T11:49:53.905Z,66.54
2024-05-09T11:50:53.772Z,66.46
2024-05-09T11:51:53.818Z,65.72
2024-05-09T11:52:53.762Z,66.79
2024-05-09T11:53:53.798Z,65.56
2024-05-09T11:54:53.903Z,68.00
2024-05-09T11:55:53.815Z,67.04
2024-05-09T11:56:53.828Z,68.84
2024-05-09T11:57:53.878Z,66.70
2024-05-09T11:58:53.841Z,66.68
2024-05-09T11:59:53.890Z,65.95
2024-05-09T12:00:53.913Z,66.43
2024-05-09T12:01:53.997Z,65.81
2024-05-09T12:02:53.966Z,65.31
2024-05-09T12:03:54.144Z,66.10
2024-05-09T12:04:54.101Z,64.04
2024-05-09T12:05:53.989Z,62.25
2024-05-09T12:06:54.015Z,61.67
2024-05-09T12:07:53.985Z,59.76
2024-05-09T12:08:54.067Z,59.70
2024-05-09T12:09:54.141Z,60.44
2024-05-09T12:10:54.147Z,60.16
2024-05-09T12:11:54.023Z,60.35
2024-05-09T12:12:54.039Z,58.41
2024-05-09T12:13:54.014Z,58.72
2024-05-09T12:14:54.013Z,59.51
2024-05-09T12:15:54.071Z,57.38
2024-05-09T12:16:54.100Z,57.03
2024-05-09T12:17:54.966Z,56.53
2024-05-09T12:18:54.184Z,56.04
2024-05-09T12:19:54.036Z,55.83
2024-05-09T12:20:54.068Z,55.35
2024-05-09T12:21:54.221Z,58.28
2024-05-09T12:22:54.058Z,54.08
2024-05-09T12:23:54.060Z,53.41
2024-05-09T12:24:54.166Z,50.83
2024-05-09T12:25:54.099Z,52.79
2024-05-09T12:26:54.102Z,51.93
2024-05-09T12:27:54.223Z,53.01
2024-05-09T12:28:54.123Z,51.92
2024-05-09T12:29:54.143Z,54.94
2024-05-09T12:30:54.208Z,53.86
2024-05-09T12:31:54.248Z,51.87
2024-05-09T12:32:54.276Z,51.56
2024-05-09T12:33:54.411Z,50.81
2024-05-09T12:34:54.255Z,51.31
2024-05-09T12:35:54.277Z,53.09
2024-05-09T12:36:54.320Z,52.15
2024-05-09T12:37:54.292Z,50.13
2024-05-09T12:38:54.324Z,53.84
2024-05-09T12:39:54.367Z,52.56
2024-05-09T12:40:54.626Z,52.31
2024-05-09T12:41:54.404Z,54.55
2024-05-09T12:42:54.457Z,53.01
2024-05-09T12:43:54.438Z,52.49
2024-05-09T12:44:54.514Z,54.92
2024-05-09T12:45:54.522Z,52.29
2024-05-09T12:46:54.492Z,53.34
2024-05-09T12:47:54.656Z,52.05
2024-05-09T12:48:55.081Z,51.05
2024-05-09T12:49:54.546Z,54.31
2024-05-09T12:50:54.583Z,53.05
2024-05-09T12:51:54.724Z,52.52
2024-05-09T12:52:54.594Z,53.09
2024-05-09T12:53:54.617Z,50.97
2024-05-09T12:54:54.959Z,52.54
2024-05-09T12:56:00.104Z,52.67
2024-05-09T12:56:55.681Z,52.78
2024-05-09T12:57:54.685Z,52.93